Burgemeesterswijk, Netherlands
Current Conditions -  °F | °C
As of 9:25 PM on Wednesday 26 Nov 2014 (Local Time) from EHDL Reporting Station
Drizzle Drizzle  
Wind Chill: 35°   Ceiling: 1200
Heat Index: 41°   Visibility: 1.8mi
Dew Point: 39°   Wind: 10mph
Humidity: 93%   Direction: 140°SE
Pressure: 29.88"   Gusts: NA
Location:  51.99°N, 5.9°E
Report Text: EHDL 262025Z AUTO 14009KT 2900 +DZ FEW007 OVC012 05/04 Q1012 YLO
Loading
Personal Weather Stations






























Interactive Weather Map New forecast layout! Learn more

10-Day Weather Forecast

Advertisements
Track Severe Weather on mobile